Charlotte, NC (28202)

8:35 AM EDT on July 28, 2016 (GMT -0400)
Charlotte | | Change Station

Elev 0 ft 35.23 °N, 80.85 °W | Updated 4 minutes ago

Scattered Clouds
Scattered Clouds
81.7 °F
Feels Like 85 °F
N
5.0
Wind Variable Wind from NNW
Gusts 9.9 mph

Today
High -- | Low -- °F
--% Chance of Precip.
Yesterday
High -- | Low -- °F
Precip. -- in
Pressure 29.95 in
Visibility 10.0 miles
Clouds Few 18000 ft
Scattered Clouds 25000 ft
Heat Index 85 °F
Dew Point 68 °F
Humidity 63%
Rainfall Not available.
Snow Depth Not available.
6:29 AM 8:29 PM
Waning Crescent, 32% visible
METAR KCLT 281152Z 26005KT 10SM FEW180 SCT250 26/21 A2998 RMK AO2 SLP142 T02610206 10278 20256 52010
Pressure 29.95 in
Visibility 10.0 miles
Clouds Few 18000 ft
Scattered Clouds 25000 ft
Heat Index 85 °F
Dew Point 68 °F
Humidity 63%
Rainfall Not available.
Snow Depth Not available.
6:29 AM 8:29 PM
Waning Crescent, 32% visible
METAR KCLT 281152Z 26005KT 10SM FEW180 SCT250 26/21 A2998 RMK AO2 SLP142 T02610206 10278 20256 52010

10-Day Weather Forecast

Almanac

Astronomy

Jul. 28, 2016 Rise Set
Actual Time
Civil Twilight
Nautical Twilight
Astronomical Twilight
Moon
Length of Visible Light
Length of Day
Tomorrow will be .
, % of the Moon is Illuminated

Today's Extremes

State Highs State Lows

Community

WunderPhotos

Upload Photos

1,928,099 photos uploaded!

WunderBlog® & News

Nearby

Air Quality

  Air Quality AQ Index Pollutant
Not available.

Snow Depth

Station Depth Elevation

Earthquake Activity

City Distance Mag. Time & Date
Minimum magnitude displayed is 2.5.

Coastal Water Temperatures

Place Temperature

Stations

Nearby Weather Stations

Station Location Temp. Windchill Dew Point Humidity Wind Precip. Elev Updated Type
                   

Watches & Warnings

There are currently no watches in effect.